Time;durP1;ratioP1;P1;durP2;ratioP2;P2;SDS_P1;SDS_P2;PMS_P1;PMS_P2;Temp;Humidity;BMP_temperature;BMP_pressure;BME280_temperature;BME280_humidity;BME280_pressure;Samples;Min_cycle;Max_cycle;Signal;HPM_P1;HPM_P2
2022/06/19 00:02:17;;;;;;;6.65;3.60;;;21.20;99.90;;;;;;5015057;28;20192;-72
2022/06/19 00:04:46;;;;;;;4.03;3.70;;;21.20;99.90;;;;;;5013857;28;20662;-72
2022/06/19 00:07:12;;;;;;;5.38;4.03;;;21.10;99.90;;;;;;5018200;28;20181;-72
2022/06/19 00:09:38;;;;;;;4.25;3.65;;;21.10;99.90;;;;;;5015159;28;20703;-72
2022/06/19 00:12:05;;;;;;;3.42;3.15;;;21.00;99.90;;;;;;5014860;28;20243;-72
2022/06/19 00:14:33;;;;;;;3.88;3.58;;;21.00;99.90;;;;;;5015071;28;20248;-72
2022/06/19 00:17:09;;;;;;;3.67;3.47;;;20.90;99.90;;;;;;5019130;28;20230;-72
2022/06/19 00:19:36;;;;;;;4.43;3.55;;;20.90;99.90;;;;;;5034854;28;20214;-72
2022/06/19 00:22:02;;;;;;;4.28;3.88;;;20.90;99.90;;;;;;5016662;28;20197;-72
2022/06/19 00:24:29;;;;;;;3.72;3.42;;;20.90;99.90;;;;;;5015143;28;20173;-73
2022/06/19 00:26:55;;;;;;;3.63;3.33;;;20.80;99.90;;;;;;5014995;28;20707;-75
2022/06/19 00:29:21;;;;;;;6.35;3.78;;;20.80;99.90;;;;;;5014884;28;20187;-75
2022/06/19 00:31:47;;;;;;;3.38;3.08;;;20.70;99.90;;;;;;5014448;28;20205;-75
2022/06/19 00:34:12;;;;;;;3.75;3.45;;;20.70;99.90;;;;;;5022399;28;20188;-75
2022/06/19 00:36:38;;;;;;;3.83;3.33;;;20.70;99.90;;;;;;5017654;28;20601;-74
2022/06/19 00:39:03;;;;;;;4.28;3.88;;;20.70;99.90;;;;;;5014324;28;20511;-74
2022/06/19 00:41:35;;;;;;;4.15;3.85;;;20.70;99.90;;;;;;5014490;28;20182;-74
2022/06/19 00:44:08;;;;;;;7.85;4.20;;;20.70;99.90;;;;;;5014409;28;20181;-74
2022/06/19 00:46:42;;;;;;;3.88;3.55;;;20.60;99.90;;;;;;5014630;28;20641;-74
2022/06/19 00:49:20;;;;;;;3.60;3.13;;;20.70;99.90;;;;;;5017950;28;20203;-75
2022/06/19 00:51:49;;;;;;;8.45;4.15;;;20.60;99.90;;;;;;5034963;28;20200;-75
2022/06/19 00:54:19;;;;;;;4.93;3.65;;;20.50;99.90;;;;;;5038273;28;20684;-75
2022/06/19 00:56:44;;;;;;;3.97;3.67;;;20.50;99.90;;;;;;5041982;28;20172;-74
2022/06/19 00:59:11;;;;;;;4.47;3.83;;;20.50;99.90;;;;;;5031252;28;20185;-73
2022/06/19 01:01:38;;;;;;;4.18;3.80;;;20.40;99.90;;;;;;5029294;28;20176;-73
2022/06/19 01:04:12;;;;;;;6.28;4.10;;;20.40;99.90;;;;;;5030106;28;20169;-73
2022/06/19 01:06:37;;;;;;;4.22;3.88;;;20.40;99.90;;;;;;5023437;28;20547;-74
2022/06/19 01:09:04;;;;;;;4.40;3.72;;;20.30;99.90;;;;;;5026101;28;20200;-73
2022/06/19 01:11:34;;;;;;;4.13;3.65;;;20.30;99.90;;;;;;5029579;28;20177;-73
2022/06/19 01:14:02;;;;;;;4.00;3.70;;;20.30;99.90;;;;;;5022903;28;20185;-73
2022/06/19 01:16:28;;;;;;;4.10;3.55;;;20.20;99.90;;;;;;5024607;28;20769;-73
2022/06/19 01:18:54;;;;;;;4.93;3.70;;;20.20;99.90;;;;;;5023472;28;20666;-73
2022/06/19 01:21:35;;;;;;;4.97;4.47;;;20.10;99.90;;;;;;5021619;28;20178;-73
2022/06/19 01:24:06;;;;;;;5.78;4.38;;;20.10;99.90;;;;;;5024749;28;20718;-73
2022/06/19 01:26:37;;;;;;;4.32;4.03;;;20.00;99.90;;;;;;5031193;28;20541;-73
2022/06/19 01:29:03;;;;;;;4.53;4.20;;;20.00;99.90;;;;;;5036104;28;20648;-73
2022/06/19 01:31:34;;;;;;;5.78;4.57;;;20.00;99.90;;;;;;5023521;28;20239;-73
2022/06/19 01:34:26;;;;;;;6.90;4.53;;;20.00;99.90;;;;;;5021668;28;20185;-73
2022/06/19 01:37:14;;;;;;;4.28;3.97;;;20.00;99.90;;;;;;5022929;28;20178;-73
2022/06/19 01:39:46;;;;;;;4.50;4.10;;;20.00;99.90;;;;;;5033633;28;20202;-73
2022/06/19 01:42:13;;;;;;;4.70;3.85;;;19.90;99.90;;;;;;5031863;28;20262;-73
2022/06/19 01:44:41;;;;;;;5.63;3.95;;;19.90;99.90;;;;;;5017880;28;20186;-73
2022/06/19 01:47:07;;;;;;;4.40;4.10;;;19.80;99.90;;;;;;5013881;28;20181;-73
2022/06/19 01:49:34;;;;;;;4.88;3.95;;;19.80;99.90;;;;;;5013240;28;20235;-73
2022/06/19 01:52:03;;;;;;;5.10;3.65;;;19.80;99.90;;;;;;5013407;28;20201;-73
2022/06/19 01:54:36;;;;;;;5.30;3.92;;;19.80;99.90;;;;;;5013465;28;20688;-73
2022/06/19 01:57:05;;;;;;;7.05;4.47;;;19.70;99.90;;;;;;5014890;28;20173;-73
2022/06/19 01:59:33;;;;;;;6.18;3.72;;;19.70;99.90;;;;;;5031966;28;20184;-73
2022/06/19 02:02:01;;;;;;;6.20;3.80;;;19.70;99.90;;;;;;5032857;28;20277;-73
2022/06/19 02:04:27;;;;;;;6.80;4.22;;;19.60;99.90;;;;;;5032814;28;20184;-73
2022/06/19 02:06:57;;;;;;;6.13;3.70;;;19.60;99.90;;;;;;5032724;28;20173;-73
2022/06/19 02:09:23;;;;;;;4.50;4.10;;;19.60;99.90;;;;;;5015660;28;20356;-73
2022/06/19 02:11:50;;;;;;;3.85;3.63;;;19.60;99.90;;;;;;5015320;28;20557;-74
2022/06/19 02:14:16;;;;;;;5.40;3.83;;;19.50;99.90;;;;;;5032324;28;20176;-74
2022/06/19 02:16:44;;;;;;;4.35;3.95;;;19.50;99.90;;;;;;5024134;28;20228;-73
2022/06/19 02:19:11;;;;;;;4.20;3.72;;;19.50;99.90;;;;;;5013277;28;20177;-73
2022/06/19 02:21:43;;;;;;;5.40;4.45;;;19.50;99.90;;;;;;5022592;28;20686;-74
2022/06/19 02:24:11;;;;;;;4.28;3.88;;;19.40;99.90;;;;;;5032363;28;20196;-73
2022/06/19 02:26:39;;;;;;;4.53;4.13;;;19.40;99.90;;;;;;5023460;28;20205;-74
2022/06/19 02:29:09;;;;;;;5.70;4.05;;;19.40;99.90;;;;;;5037173;28;20207;-74
2022/06/19 02:31:37;;;;;;;4.13;3.83;;;19.40;99.90;;;;;;5035979;28;20220;-74
2022/06/19 02:34:07;;;;;;;4.95;3.75;;;19.40;99.90;;;;;;5031010;28;20204;-74
2022/06/19 02:36:37;;;;;;;4.70;4.03;;;19.40;99.90;;;;;;5030798;28;20574;-74
2022/06/19 02:39:18;;;;;;;5.15;4.05;;;19.40;99.90;;;;;;5032599;28;20565;-74
2022/06/19 02:41:51;;;;;;;4.13;3.72;;;19.40;99.90;;;;;;5030996;28;20195;-74
2022/06/19 02:44:17;;;;;;;4.43;4.10;;;19.40;99.90;;;;;;5040995;28;20274;-74
2022/06/19 02:46:42;;;;;;;5.38;3.92;;;19.30;99.90;;;;;;5035328;28;20271;-74
2022/06/19 02:49:08;;;;;;;4.95;4.25;;;19.40;99.90;;;;;;5043648;28;20602;-74
2022/06/19 02:51:33;;;;;;;4.55;3.60;;;19.30;99.90;;;;;;5029673;28;20554;-74
2022/06/19 02:53:59;;;;;;;3.70;3.50;;;19.30;99.90;;;;;;5012449;28;20237;-74
2022/06/19 02:56:25;;;;;;;6.43;3.92;;;19.30;99.90;;;;;;5029820;28;20663;-73
2022/06/19 02:58:50;;;;;;;5.65;4.45;;;19.20;99.90;;;;;;5032039;28;20204;-74
2022/06/19 03:01:16;;;;;;;4.18;3.83;;;19.20;99.90;;;;;;5016575;28;20202;-74
2022/06/19 03:03:42;;;;;;;4.90;4.50;;;19.20;99.90;;;;;;5027548;28;20702;-74
2022/06/19 03:06:07;;;;;;;4.03;3.70;;;19.20;99.90;;;;;;5012576;28;20173;-73
2022/06/19 03:08:33;;;;;;;6.90;4.00;;;19.20;99.90;;;;;;5012402;28;20284;-73
2022/06/19 03:10:59;;;;;;;4.25;3.88;;;19.10;99.90;;;;;;5028998;28;20588;-73
2022/06/19 03:13:26;;;;;;;4.70;4.00;;;19.10;99.90;;;;;;5031949;28;20189;-73
2022/06/19 03:16:07;;;;;;;3.92;3.70;;;19.10;99.90;;;;;;5026430;28;20197;-73
2022/06/19 03:18:34;;;;;;;4.03;3.72;;;19.10;99.90;;;;;;5011912;28;20180;-73
2022/06/19 03:21:01;;;;;;;4.25;3.90;;;19.00;99.90;;;;;;5012472;28;20184;-73
2022/06/19 03:23:27;;;;;;;3.80;3.50;;;19.00;99.90;;;;;;5015751;28;20199;-73
2022/06/19 03:25:53;;;;;;;6.53;3.90;;;19.00;99.90;;;;;;5029532;28;20235;-73
2022/06/19 03:28:19;;;;;;;6.15;4.10;;;19.00;99.90;;;;;;5016366;28;20177;-74
2022/06/19 03:30:44;;;;;;;4.55;4.10;;;19.00;99.90;;;;;;5016234;28;20536;-74
2022/06/19 03:33:10;;;;;;;4.07;3.63;;;19.00;99.90;;;;;;5015850;28;20204;-74
2022/06/19 03:35:36;;;;;;;4.10;3.80;;;19.00;99.90;;;;;;5015989;28;20212;-73
2022/06/19 03:38:01;;;;;;;3.90;3.60;;;18.90;99.90;;;;;;5018855;28;20173;-73
2022/06/19 03:40:27;;;;;;;6.40;4.65;;;18.90;99.90;;;;;;5016374;28;20668;-73
2022/06/19 03:42:52;;;;;;;4.65;4.22;;;18.90;99.90;;;;;;5016102;28;20212;-73
2022/06/19 03:45:18;;;;;;;4.82;4.35;;;18.90;99.90;;;;;;5032680;28;20177;-73
2022/06/19 03:47:44;;;;;;;5.47;4.30;;;19.00;99.90;;;;;;5016086;28;20177;-73
2022/06/19 03:50:16;;;;;;;4.28;3.97;;;19.00;99.90;;;;;;5016040;28;20184;-73
2022/06/19 03:52:41;;;;;;;5.13;3.95;;;19.00;99.90;;;;;;5014159;28;20287;-73
2022/06/19 03:55:08;;;;;;;3.85;3.55;;;19.00;99.90;;;;;;5029379;28;20636;-74
2022/06/19 03:57:33;;;;;;;4.40;4.07;;;19.10;99.90;;;;;;5030779;28;20756;-74
2022/06/19 03:59:59;;;;;;;4.10;3.60;;;19.10;99.90;;;;;;5027005;28;20212;-73
2022/06/19 04:02:25;;;;;;;5.80;4.28;;;19.20;99.90;;;;;;5035701;28;20671;-74
2022/06/19 04:04:51;;;;;;;5.65;4.00;;;19.20;99.90;;;;;;5023909;28;20192;-74
2022/06/19 04:07:16;;;;;;;6.03;4.28;;;19.20;99.90;;;;;;5023998;28;20181;-74
2022/06/19 04:09:42;;;;;;;3.80;3.50;;;19.20;99.90;;;;;;5025382;28;20165;-74
2022/06/19 04:12:09;;;;;;;4.18;3.25;;;19.30;99.90;;;;;;5027727;28;20209;-74
2022/06/19 04:14:35;;;;;;;4.90;3.78;;;19.40;99.90;;;;;;5020907;28;20570;-74
2022/06/19 04:17:01;;;;;;;5.07;4.30;;;19.40;99.90;;;;;;5008835;28;20180;-74
2022/06/19 04:19:27;;;;;;;4.35;4.00;;;19.40;99.90;;;;;;5012440;28;20182;-74
2022/06/19 04:21:53;;;;;;;5.18;3.80;;;19.40;99.90;;;;;;5020745;28;20205;-75
2022/06/19 04:24:22;;;;;;;4.05;3.70;;;19.50;99.90;;;;;;5030950;28;20268;-74
2022/06/19 04:26:48;;;;;;;4.18;3.80;;;19.60;99.90;;;;;;5024829;28;20575;-74
2022/06/19 04:29:14;;;;;;;4.97;4.13;;;19.60;99.90;;;;;;5040683;28;20185;-75
2022/06/19 04:31:40;;;;;;;5.13;4.30;;;19.60;99.90;;;;;;5046230;28;20200;-75
2022/06/19 04:34:06;;;;;;;4.53;3.63;;;19.70;99.90;;;;;;5040882;28;20172;-75
2022/06/19 04:36:33;;;;;;;5.10;4.70;;;19.70;99.90;;;;;;5034381;28;20666;-74
2022/06/19 04:38:59;;;;;;;4.68;4.25;;;19.80;99.90;;;;;;5032789;28;20323;-75
2022/06/19 04:41:37;;;;;;;4.95;4.25;;;19.80;99.90;;;;;;5015002;28;20162;-75
2022/06/19 04:44:05;;;;;;;5.25;3.95;;;19.90;99.90;;;;;;5014450;28;20173;-76
2022/06/19 04:46:30;;;;;;;4.10;3.80;;;20.00;99.90;;;;;;5014921;28;20169;-75
2022/06/19 04:48:57;;;;;;;4.50;4.00;;;20.10;99.90;;;;;;5021801;28;20187;-76
2022/06/19 04:51:23;;;;;;;4.07;3.70;;;20.20;99.90;;;;;;5030709;28;20715;-75
2022/06/19 04:53:49;;;;;;;3.97;3.63;;;20.30;99.90;;;;;;5036294;28;20168;-75
2022/06/19 04:56:16;;;;;;;4.22;3.45;;;20.40;99.90;;;;;;5036712;28;20220;-75
2022/06/19 04:58:42;;;;;;;3.97;3.67;;;20.40;99.90;;;;;;5017514;28;20652;-75
2022/06/19 05:01:10;;;;;;;3.63;3.33;;;20.50;99.90;;;;;;5023776;28;20259;-75
2022/06/19 05:03:36;;;;;;;4.68;3.40;;;20.50;99.90;;;;;;5021863;28;20605;-75
2022/06/19 05:06:04;;;;;;;3.92;3.63;;;20.60;99.90;;;;;;5022732;28;20554;-75
2022/06/19 05:08:29;;;;;;;3.85;3.42;;;20.60;99.90;;;;;;5022242;28;20181;-74
2022/06/19 05:10:55;;;;;;;3.88;3.55;;;20.70;99.90;;;;;;5027012;28;20724;-75
2022/06/19 05:13:22;;;;;;;3.90;3.60;;;20.70;99.90;;;;;;5019661;28;20207;-74
2022/06/19 05:15:49;;;;;;;4.15;3.80;;;20.90;99.90;;;;;;5037264;28;20211;-75
2022/06/19 05:18:17;;;;;;;3.85;3.35;;;21.00;99.90;;;;;;5032638;28;20188;-75
2022/06/19 05:20:42;;;;;;;4.40;3.60;;;21.00;99.90;;;;;;5044144;28;20200;-76
2022/06/19 05:23:09;;;;;;;5.05;3.72;;;21.10;99.90;;;;;;5027398;28;20365;-76
2022/06/19 05:25:35;;;;;;;3.55;3.13;;;21.20;99.90;;;;;;5032770;28;20177;-76
2022/06/19 05:28:01;;;;;;;3.72;3.40;;;21.20;99.90;;;;;;5023042;28;20182;-76
2022/06/19 05:30:26;;;;;;;6.30;3.35;;;21.30;99.90;;;;;;5047872;28;20219;-75
2022/06/19 05:32:52;;;;;;;4.10;3.50;;;21.40;99.90;;;;;;5033353;28;20562;-75
2022/06/19 05:35:18;;;;;;;3.53;3.22;;;21.60;99.90;;;;;;5026167;28;20205;-76
2022/06/19 05:37:43;;;;;;;5.35;3.60;;;21.60;99.90;;;;;;5020112;28;20221;-73
2022/06/19 05:40:10;;;;;;;3.50;3.00;;;21.80;99.90;;;;;;5013512;28;20531;-75
2022/06/19 05:42:36;;;;;;;3.65;3.17;;;21.80;99.90;;;;;;5022671;28;20247;-74
2022/06/19 05:45:02;;;;;;;4.45;2.95;;;21.90;99.90;;;;;;5023532;28;20242;-75
2022/06/19 05:47:27;;;;;;;3.25;2.95;;;22.00;99.90;;;;;;5017306;28;20660;-75
2022/06/19 05:49:53;;;;;;;5.68;3.22;;;22.00;99.90;;;;;;5025227;28;20188;-75
2022/06/19 05:52:24;;;;;;;4.10;3.10;;;22.10;99.90;;;;;;5023904;28;20628;-78
2022/06/19 05:54:50;;;;;;;3.22;2.92;;;22.10;99.90;;;;;;5013007;28;20201;-74
2022/06/19 05:57:16;;;;;;;2.92;2.75;;;22.20;99.90;;;;;;5015848;28;20185;-74
2022/06/19 05:59:42;;;;;;;7.90;2.97;;;22.30;99.90;;;;;;5023062;28;20192;-75
2022/06/19 06:02:09;;;;;;;3.40;3.17;;;22.40;99.90;;;;;;5023221;28;20196;-78
2022/06/19 06:04:34;;;;;;;4.07;3.17;;;22.40;99.90;;;;;;5022547;28;20312;-78
2022/06/19 06:07:00;;;;;;;3.83;3.35;;;22.50;99.90;;;;;;5011148;28;20268;-77
2022/06/19 06:09:26;;;;;;;4.20;3.25;;;22.60;99.90;;;;;;5017059;28;20199;-77
2022/06/19 06:11:51;;;;;;;5.05;3.05;;;22.70;99.90;;;;;;5020859;28;20197;-77
2022/06/19 06:14:17;;;;;;;3.65;3.35;;;22.80;99.90;;;;;;5020305;28;20192;-77
2022/06/19 06:16:42;;;;;;;4.50;3.33;;;22.80;99.90;;;;;;5019007;28;20180;-78
2022/06/19 06:19:08;;;;;;;3.90;3.25;;;22.90;99.90;;;;;;5021315;28;20189;-78
2022/06/19 06:21:34;;;;;;;3.15;2.95;;;23.00;99.90;;;;;;5023876;28;20184;-79
2022/06/19 06:23:59;;;;;;;3.22;2.90;;;23.10;99.90;;;;;;5020738;28;20172;-78
2022/06/19 06:26:29;;;;;;;3.40;3.20;;;23.20;99.90;;;;;;5019851;28;20181;-78
2022/06/19 06:28:57;;;;;;;3.17;2.97;;;23.30;99.90;;;;;;5013016;28;20173;-78
2022/06/19 06:31:23;;;;;;;2.90;2.70;;;23.40;99.90;;;;;;5012172;28;20680;-78
2022/06/19 06:33:49;;;;;;;3.45;2.90;;;23.50;99.90;;;;;;5012478;28;20191;-78
2022/06/19 06:36:16;;;;;;;3.30;3.00;;;23.50;99.90;;;;;;5028104;28;20295;-78
2022/06/19 06:38:43;;;;;;;4.50;3.20;;;23.60;99.90;;;;;;5019963;28;20200;-78
2022/06/19 06:41:11;;;;;;;6.68;2.70;;;23.70;99.90;;;;;;5013172;28;20173;-78
2022/06/19 06:43:38;;;;;;;3.33;3.05;;;23.80;99.90;;;;;;5012534;28;20208;-75
2022/06/19 06:46:13;;;;;;;4.60;3.10;;;23.90;99.90;;;;;;5012336;28;20212;-75
2022/06/19 06:48:39;;;;;;;3.10;2.80;;;24.00;99.90;;;;;;5011894;28;20203;-75
2022/06/19 06:51:07;;;;;;;4.22;2.75;;;24.10;99.90;;;;;;5015766;28;20197;-75
2022/06/19 06:53:34;;;;;;;4.65;3.17;;;24.20;99.90;;;;;;5020477;28;20549;-75
2022/06/19 06:55:59;;;;;;;3.17;2.60;;;24.20;99.90;;;;;;5020642;28;20200;-76
2022/06/19 06:58:25;;;;;;;2.88;2.67;;;24.30;99.90;;;;;;5031918;28;20199;-75
2022/06/19 07:00:50;;;;;;;3.65;3.10;;;24.50;99.90;;;;;;5031090;28;20267;-75
2022/06/19 07:03:16;;;;;;;3.53;2.60;;;24.60;99.90;;;;;;5030267;28;20801;-76
2022/06/19 07:05:42;;;;;;;4.18;3.17;;;24.60;99.90;;;;;;5031736;28;20279;-76
2022/06/19 07:08:07;;;;;;;2.70;2.50;;;24.70;99.90;;;;;;5031690;28;20204;-75
2022/06/19 07:10:33;;;;;;;4.03;3.08;;;24.80;99.90;;;;;;5024258;28;20272;-76
2022/06/19 07:13:00;;;;;;;3.35;2.78;;;25.00;99.90;;;;;;5020463;28;20197;-72
2022/06/19 07:15:26;;;;;;;3.17;2.70;;;25.10;99.90;;;;;;5022859;28;20295;-72
2022/06/19 07:17:52;;;;;;;3.80;3.40;;;25.20;99.90;;;;;;5024456;28;20727;-72
2022/06/19 07:20:18;;;;;;;3.17;2.90;;;25.30;99.90;;;;;;5017331;28;20181;-72
2022/06/19 07:22:44;;;;;;;5.18;3.22;;;25.20;99.90;;;;;;5017906;28;20216;-72
2022/06/19 07:25:18;;;;;;;4.90;2.90;;;25.20;99.90;;;;;;5017196;28;20229;-73
2022/06/19 07:27:44;;;;;;;5.28;3.13;;;25.20;99.90;;;;;;5024032;28;20199;-73
2022/06/19 07:30:20;;;;;;;3.30;3.08;;;25.20;99.90;;;;;;5017495;28;20195;-72
2022/06/19 07:32:45;;;;;;;4.60;3.17;;;25.20;99.90;;;;;;5018934;28;20208;-72
2022/06/19 07:35:11;;;;;;;6.07;3.38;;;25.40;99.90;;;;;;5018884;28;20303;-71
2022/06/19 07:37:37;;;;;;;2.88;2.65;;;25.50;99.90;;;;;;5021331;28;20185;-71
2022/06/19 07:40:03;;;;;;;3.10;2.60;;;25.60;99.90;;;;;;5023683;28;20180;-71
2022/06/19 07:42:29;;;;;;;3.63;2.75;;;25.70;99.90;;;;;;5018398;28;20228;-72
2022/06/19 07:44:55;;;;;;;3.35;2.70;;;25.80;99.90;;;;;;5016146;28;20178;-72
2022/06/19 07:50:11;;;;;;;3.35;2.97;;;26.10;99.90;;;;;;5024148;28;20191;-72
2022/06/19 07:52:38;;;;;;;4.35;2.90;;;26.10;99.90;;;;;;5023610;28;20246;-72
2022/06/19 07:55:05;;;;;;;4.18;2.92;;;26.10;99.90;;;;;;5018345;28;20295;-73
2022/06/19 07:57:31;;;;;;;7.70;3.25;;;26.10;99.90;;;;;;5019223;28;20177;-73
2022/06/19 07:59:56;;;;;;;4.07;2.80;;;26.20;99.90;;;;;;5023163;28;20204;-72
2022/06/19 08:02:24;;;;;;;3.88;3.10;;;26.30;99.90;;;;;;5023542;28;20691;-72
2022/06/19 08:04:50;;;;;;;3.08;2.80;;;26.40;99.90;;;;;;5023661;28;20206;-72
2022/06/19 08:07:17;;;;;;;4.03;2.83;;;26.60;99.90;;;;;;5022029;28;20200;-72
2022/06/19 08:09:43;;;;;;;5.95;3.10;;;26.70;99.90;;;;;;5023329;28;20177;-73
2022/06/19 08:12:09;;;;;;;3.83;2.97;;;26.80;99.90;;;;;;5024578;28;20653;-73
2022/06/19 08:14:35;;;;;;;3.85;2.50;;;26.80;99.90;;;;;;5027584;28;20612;-73
2022/06/19 08:17:01;;;;;;;3.20;2.95;;;26.80;99.90;;;;;;5023379;28;20237;-73
2022/06/19 08:19:27;;;;;;;3.97;2.97;;;26.90;99.90;;;;;;5026659;28;20181;-74
2022/06/19 08:21:52;;;;;;;9.10;3.33;;;27.00;99.90;;;;;;5018749;28;20628;-74
2022/06/19 08:24:18;;;;;;;6.22;3.33;;;27.00;99.90;;;;;;5018620;28;20277;-74
2022/06/19 08:26:44;;;;;;;6.90;3.35;;;27.10;99.90;;;;;;5027788;28;20184;-73
2022/06/19 08:29:10;;;;;;;3.50;3.17;;;27.20;99.90;;;;;;5023900;28;20212;-73
2022/06/19 08:31:35;;;;;;;4.15;2.60;;;27.40;99.90;;;;;;5021922;28;20189;-73
2022/06/19 08:34:02;;;;;;;5.28;2.83;;;27.60;99.90;;;;;;5023100;28;20185;-73
2022/06/19 08:36:29;;;;;;;6.07;3.20;;;27.70;99.80;;;;;;5024040;28;20219;-73
2022/06/19 08:38:59;;;;;;;3.78;3.17;;;27.80;98.30;;;;;;5024729;28;20211;-72
2022/06/19 08:41:31;;;;;;;3.47;2.88;;;27.80;98.70;;;;;;5019050;28;20224;-73
2022/06/19 08:44:23;;;;;;;4.30;2.92;;;27.80;99.50;;;;;;5014103;28;20267;-72
2022/06/19 08:47:04;;;;;;;3.10;2.80;;;27.80;98.60;;;;;;5031768;28;20177;-74
2022/06/19 08:49:47;;;;;;;5.35;3.00;;;27.80;98.70;;;;;;5034279;28;20191;-74
2022/06/19 08:52:50;;;;;;;4.18;2.85;;;27.90;99.90;;;;;;5034032;28;20189;-73
2022/06/19 08:55:24;;;;;;;4.25;3.00;;;28.00;98.80;;;;;;5021265;28;20210;-74
2022/06/19 08:58:03;;;;;;;4.20;3.08;;;28.10;99.90;;;;;;5033757;28;20218;-74
2022/06/19 09:01:04;;;;;;;2.80;2.60;;;28.30;99.90;;;;;;5033448;28;20671;-74
2022/06/19 09:07:02;;;;;;;5.82;2.88;;;28.80;99.50;;;;;;5016117;28;20192;-74
2022/06/19 09:09:42;;;;;;;4.72;2.85;;;28.90;98.40;;;;;;5017827;28;20182;-74
2022/06/19 09:12:17;;;;;;;4.47;2.85;;;29.20;98.20;;;;;;5022208;28;20204;-74
2022/06/19 09:15:01;;;;;;;3.90;2.78;;;29.40;97.70;;;;;;5020579;28;20207;-74
2022/06/19 09:17:33;;;;;;;4.15;2.75;;;29.50;97.50;;;;;;5018425;28;20604;-72
2022/06/19 09:20:05;;;;;;;3.90;2.97;;;29.70;96.10;;;;;;5021709;28;20188;-72
2022/06/19 09:22:56;;;;;;;5.00;2.72;;;29.80;94.40;;;;;;5022841;28;20225;-72
2022/06/19 09:25:44;;;;;;;3.40;3.08;;;30.00;93.50;;;;;;5022230;28;20244;-72
2022/06/19 09:28:58;;;;;;;6.43;2.83;;;30.00;94.00;;;;;;5022249;28;20534;-72
2022/06/19 09:31:53;;;;;;;6.03;3.42;;;30.20;93.40;;;;;;5020607;28;20212;-72
2022/06/19 09:34:35;;;;;;;6.97;3.10;;;30.50;93.30;;;;;;5017994;28;20184;-72
2022/06/19 09:37:24;;;;;;;6.43;3.15;;;30.90;92.90;;;;;;5012036;28;20660;-72
2022/06/19 09:40:01;;;;;;;5.50;3.22;;;31.60;87.80;;;;;;5012402;28;20180;-72
2022/06/19 09:42:38;;;;;;;4.10;3.05;;;33.30;89.30;;;;;;5026896;28;20196;-72
2022/06/19 09:45:07;;;;;;;4.43;2.63;;;35.80;74.30;;;;;;5028381;28;20553;-72
2022/06/19 09:47:49;;;;;;;6.28;3.35;;;37.60;69.60;;;;;;5033116;28;20242;-72
2022/06/19 09:50:34;;;;;;;6.70;3.42;;;38.30;65.80;;;;;;5021735;28;20191;-72
2022/06/19 09:53:34;;;;;;;4.32;2.90;;;40.10;58.90;;;;;;5029110;28;20200;-72
2022/06/19 09:56:11;;;;;;;4.30;2.63;;;41.40;56.90;;;;;;5013277;28;20291;-72
2022/06/19 09:58:44;;;;;;;8.80;2.80;;;42.50;52.40;;;;;;5013235;28;20639;-72
2022/06/19 10:01:11;;;;;;;5.18;3.20;;;43.50;51.00;;;;;;5028890;28;20227;-72
2022/06/19 10:03:43;;;;;;;6.53;2.53;;;44.20;49.70;;;;;;5012815;28;20204;-73
2022/06/19 10:06:21;;;;;;;6.07;2.88;;;44.40;48.50;;;;;;5015279;28;20184;-72
2022/06/19 10:08:53;;;;;;;5.00;2.80;;;44.80;47.90;;;;;;5012949;28;20198;-73
2022/06/19 10:11:27;;;;;;;6.53;2.72;;;45.10;45.30;;;;;;5032712;28;20251;-73
2022/06/19 10:13:56;;;;;;;11.02;3.70;;;45.50;45.40;;;;;;5031800;28;20202;-72
2022/06/19 10:16:44;;;;;;;8.63;3.15;;;45.80;43.60;;;;;;5032501;28;20287;-73
2022/06/19 10:19:14;;;;;;;3.40;2.45;;;45.60;43.00;;;;;;5012959;28;20260;-73
2022/06/19 10:22:14;;;;;;;6.10;3.25;;;46.00;43.10;;;;;;5028719;28;20176;-73
2022/06/19 10:25:06;;;;;;;8.20;4.25;;;46.60;41.80;;;;;;5032514;28;20219;-73
2022/06/19 10:27:54;;;;;;;9.48;4.00;;;46.70;41.80;;;;;;5021386;28;20176;-73
2022/06/19 10:30:36;;;;;;;9.60;4.20;;;46.00;41.50;;;;;;5020152;28;20290;-73
2022/06/19 10:33:30;;;;;;;9.05;3.50;;;46.50;41.80;;;;;;5020034;28;20188;-73
2022/06/19 10:35:58;;;;;;;10.05;5.15;;;47.30;40.40;;;;;;5019579;28;20783;-73
2022/06/19 10:38:26;;;;;;;7.60;3.78;;;47.20;40.00;;;;;;5021743;28;20181;-73
2022/06/19 10:41:08;;;;;;;5.95;2.92;;;47.60;40.00;;;;;;5013109;28;20231;-73
2022/06/19 10:44:02;;;;;;;4.18;2.83;;;47.90;40.00;;;;;;5012238;28;20706;-73
2022/06/19 10:46:30;;;;;;;5.10;2.95;;;48.20;40.30;;;;;;5020859;28;20235;-73
2022/06/19 10:49:15;;;;;;;6.65;3.00;;;48.20;39.00;;;;;;5011910;28;20255;-73
2022/06/19 10:52:05;;;;;;;8.77;2.70;;;48.20;38.90;;;;;;5012108;28;20283;-74
2022/06/19 10:54:57;;;;;;;6.32;3.28;;;47.80;39.00;;;;;;5012108;28;20184;-73
2022/06/19 10:57:34;;;;;;;5.78;3.13;;;48.20;39.40;;;;;;5012078;28;20323;-74
2022/06/19 11:00:00;;;;;;;7.45;3.17;;;48.20;40.00;;;;;;5018745;28;20524;-73
2022/06/19 11:05:30;;;;;;;10.05;3.30;;;48.80;38.50;;;;;;5018984;28;20184;-73
2022/06/19 11:07:57;;;;;;;10.95;3.25;;;49.20;38.50;;;;;;5011674;28;20180;-73
2022/06/19 11:10:29;;;;;;;11.32;3.65;;;48.70;39.20;;;;;;5014428;28;20268;-73
2022/06/19 11:12:57;;;;;;;6.53;3.55;;;47.90;38.80;;;;;;5021980;28;20297;-73
2022/06/19 11:15:27;;;;;;;8.63;3.67;;;48.00;39.20;;;;;;5020836;28;20203;-73
2022/06/19 11:18:13;;;;;;;8.90;3.20;;;48.20;38.70;;;;;;5022406;28;20263;-73
2022/06/19 11:21:05;;;;;;;5.63;2.92;;;47.80;39.40;;;;;;5021737;28;20690;-73
2022/06/19 11:23:53;;;;;;;6.57;2.78;;;47.90;39.30;;;;;;5020143;28;20188;-73
2022/06/19 11:26:24;;;;;;;5.25;2.88;;;48.20;38.90;;;;;;5021707;28;20187;-74
2022/06/19 11:29:04;;;;;;;10.48;3.45;;;48.50;38.60;;;;;;5023478;28;20646;-74
2022/06/19 11:31:36;;;;;;;5.57;3.00;;;48.90;38.60;;;;;;5022265;28;20195;-73
2022/06/19 11:37:17;;;;;;;7.10;3.28;;;48.20;38.80;;;;;;5021540;28;20218;-73
2022/06/19 11:39:50;;;;;;;5.35;3.05;;;47.60;39.80;;;;;;5023243;28;20200;-75
2022/06/19 11:42:52;;;;;;;7.10;3.55;;;47.00;39.90;;;;;;5018184;28;20192;-73
2022/06/19 11:45:17;;;;;;;5.57;3.25;;;47.40;38.60;;;;;;5007763;28;20270;-73
2022/06/19 11:47:56;;;;;;;6.25;3.20;;;47.00;39.10;;;;;;5013992;28;20757;-73
2022/06/19 11:50:35;;;;;;;10.95;3.53;;;46.60;40.90;;;;;;5015684;28;20169;-74
2022/06/19 11:53:00;;;;;;;7.30;3.28;;;46.30;40.80;;;;;;5018531;28;20683;-74
2022/06/19 11:55:31;;;;;;;8.35;3.53;;;46.80;39.10;;;;;;5015480;28;20200;-73
2022/06/19 11:58:13;;;;;;;9.20;3.50;;;46.10;41.10;;;;;;5015202;28;20545;-73
2022/06/19 12:00:41;;;;;;;8.40;3.95;;;46.00;40.40;;;;;;5015551;28;20203;-73
2022/06/19 12:03:22;;;;;;;7.85;3.78;;;45.60;41.10;;;;;;5016298;28;20184;-74
2022/06/19 12:05:55;;;;;;;7.60;3.35;;;45.00;43.00;;;;;;5023950;28;20180;-74
2022/06/19 12:08:28;;;;;;;9.27;3.60;;;45.40;41.70;;;;;;5023876;28;20255;-74
2022/06/19 12:11:00;;;;;;;9.85;3.45;;;45.80;41.70;;;;;;5024599;28;20655;-74
2022/06/19 12:13:30;;;;;;;9.15;3.97;;;45.80;41.20;;;;;;5018330;28;20691;-74
2022/06/19 12:16:02;;;;;;;8.90;3.40;;;46.10;40.80;;;;;;5018939;28;20353;-74
2022/06/19 12:18:31;;;;;;;10.70;4.35;;;46.10;41.20;;;;;;5033285;28;20173;-73
2022/06/19 12:21:01;;;;;;;10.18;3.55;;;45.80;41.10;;;;;;5034861;28;20635;-72
2022/06/19 12:23:36;;;;;;;5.50;3.38;;;45.80;41.70;;;;;;5019479;28;20207;-72
2022/06/19 12:26:09;;;;;;;7.43;3.30;;;46.10;41.70;;;;;;5015020;28;20172;-72
2022/06/19 12:28:46;;;;;;;5.72;3.72;;;46.70;40.20;;;;;;5015068;28;20179;-72
2022/06/19 12:31:31;;;;;;;6.57;3.50;;;46.90;40.40;;;;;;5014394;28;20200;-72
2022/06/19 12:34:02;;;;;;;8.65;3.50;;;47.30;39.40;;;;;;5015030;28;20309;-72
2022/06/19 12:36:30;;;;;;;8.70;3.28;;;48.00;40.30;;;;;;5022877;28;20228;-72
2022/06/19 12:38:56;;;;;;;6.60;3.42;;;49.10;38.30;;;;;;5021676;28;20169;-72
2022/06/19 12:41:57;;;;;;;10.57;3.53;;;50.50;37.50;;;;;;5014646;28;20177;-72
2022/06/19 12:44:31;;;;;;;7.90;3.08;;;51.40;36.20;;;;;;5021958;28;20655;-72
2022/06/19 12:47:11;;;;;;;7.88;3.30;;;53.10;34.70;;;;;;5014885;28;20668;-73
2022/06/19 12:50:11;;;;;;;6.72;3.03;;;54.00;33.90;;;;;;5014623;28;20216;-72
2022/06/19 12:52:46;;;;;;;7.63;3.47;;;56.50;32.30;;;;;;5014237;28;20185;-72
2022/06/19 12:55:33;;;;;;;7.25;3.47;;;57.70;31.10;;;;;;5014316;28;20617;-73
2022/06/19 12:58:10;;;;;;;8.10;3.05;;;58.80;30.00;;;;;;5026269;28;20186;-72
2022/06/19 13:00:49;;;;;;;6.47;3.15;;;59.70;30.00;;;;;;5018040;28;20266;-73
2022/06/19 13:03:32;;;;;;;8.23;3.05;;;60.80;29.60;;;;;;5014131;28;20197;-73
2022/06/19 13:06:16;;;;;;;7.30;3.15;;;60.90;29.20;;;;;;5013949;28;20172;-72
2022/06/19 13:08:44;;;;;;;7.43;3.15;;;60.80;29.30;;;;;;5015856;28;20243;-73
2022/06/19 13:11:25;;;;;;;10.18;3.45;;;60.80;29.00;;;;;;5022520;28;20839;-73
2022/06/19 13:14:09;;;;;;;5.90;3.15;;;60.60;28.80;;;;;;5021952;28;20211;-72
2022/06/19 13:16:55;;;;;;;6.03;3.00;;;60.40;29.20;;;;;;5025000;28;20286;-73
2022/06/19 13:19:39;;;;;;;7.75;3.22;;;60.60;29.00;;;;;;5021969;28;20177;-72